createdAt,value
2019-03-27T00:00:18.129Z,91.08
2019-03-27T00:01:18.120Z,91.27
2019-03-27T00:02:18.112Z,91.27
2019-03-27T00:03:18.103Z,90.89
2019-03-27T00:04:18.099Z,91.46
2019-03-27T00:05:18.089Z,91.84
2019-03-27T00:06:18.081Z,91.46
2019-03-27T00:07:18.070Z,91.80
2019-03-27T00:08:18.057Z,91.56
2019-03-27T00:09:18.131Z,91.70
2019-03-27T00:10:18.045Z,91.32
2019-03-27T00:11:18.035Z,90.94
2019-03-27T00:12:18.023Z,91.42
2019-03-27T00:13:18.013Z,91.32
2019-03-27T00:14:18.007Z,91.61
2019-03-27T00:15:17.999Z,91.70
2019-03-27T00:16:17.995Z,92.18
2019-03-27T00:17:17.992Z,92.46
2019-03-27T00:18:17.973Z,92.27
2019-03-27T00:19:17.963Z,91.70
2019-03-27T00:20:17.952Z,91.70
2019-03-27T00:21:17.941Z,92.18
2019-03-27T00:22:17.936Z,91.61
2019-03-27T00:23:17.929Z,92.27
2019-03-27T00:24:17.922Z,92.08
2019-03-27T00:25:17.915Z,92.08
2019-03-27T00:26:17.901Z,92.36
2019-03-27T00:27:17.890Z,92.18
2019-03-27T00:28:17.886Z,92.18
2019-03-27T00:29:17.877Z,92.18
2019-03-27T00:30:17.866Z,92.36
2019-03-27T00:31:17.857Z,91.99
2019-03-27T00:32:17.843Z,91.80
2019-03-27T00:33:17.835Z,92.18
2019-03-27T00:34:17.825Z,92.27
2019-03-27T00:35:17.818Z,92.08
2019-03-27T00:36:17.812Z,91.80
2019-03-27T00:37:17.804Z,91.99
2019-03-27T00:38:17.798Z,92.18
2019-03-27T00:39:17.786Z,92.08
2019-03-27T00:40:17.777Z,92.18
2019-03-27T00:41:17.766Z,92.36
2019-03-27T00:42:17.761Z,92.27
2019-03-27T00:43:17.752Z,91.99
2019-03-27T00:44:17.739Z,91.99
2019-03-27T00:45:26.522Z,92.08
2019-03-27T00:46:17.718Z,91.89
2019-03-27T00:47:17.709Z,92.18
2019-03-27T00:48:17.707Z,91.99
2019-03-27T00:49:17.695Z,92.65
2019-03-27T00:50:17.690Z,91.99
2019-03-27T00:51:17.684Z,92.27
2019-03-27T00:52:17.664Z,91.99
2019-03-27T00:53:17.655Z,92.36
2019-03-27T00:54:17.651Z,92.56
2019-03-27T00:55:17.641Z,92.36
2019-03-27T00:56:17.636Z,92.94
2019-03-27T00:57:17.627Z,92.36
2019-03-27T00:58:17.616Z,92.56
2019-03-27T00:59:19.274Z,92.08
2019-03-27T01:00:17.601Z,92.65
2019-03-27T01:01:17.591Z,91.99
2019-03-27T01:02:17.582Z,92.65
2019-03-27T01:03:17.571Z,92.36
2019-03-27T01:04:17.557Z,92.65
2019-03-27T01:05:17.548Z,93.32
2019-03-27T01:06:17.588Z,92.46
2019-03-27T01:07:17.529Z,91.89
2019-03-27T01:08:17.527Z,91.99
2019-03-27T01:09:17.518Z,91.99
2019-03-27T01:10:17.513Z,91.42
2019-03-27T01:11:17.501Z,92.27
2019-03-27T01:12:17.488Z,92.36
2019-03-27T01:13:17.483Z,92.46
2019-03-27T01:14:17.476Z,91.99
2019-03-27T01:15:17.466Z,92.27
2019-03-27T01:16:17.453Z,92.46
2019-03-27T01:17:17.443Z,92.36
2019-03-27T01:18:17.432Z,92.46
2019-03-27T01:19:17.423Z,92.94
2019-03-27T01:20:17.417Z,92.94
2019-03-27T01:21:17.411Z,92.46
2019-03-27T01:22:17.401Z,92.46
2019-03-27T01:23:17.390Z,92.51
2019-03-27T01:24:17.379Z,92.46
2019-03-27T01:25:17.367Z,92.41
2019-03-27T01:26:17.362Z,92.99
2019-03-27T01:27:17.353Z,92.89
2019-03-27T01:28:17.347Z,92.84
2019-03-27T01:29:17.338Z,92.65
2019-03-27T01:30:17.329Z,93.75
2019-03-27T01:31:17.325Z,93.70
2019-03-27T01:32:17.312Z,93.37
2019-03-27T01:33:17.301Z,93.79
2019-03-27T01:34:17.293Z,92.61
2019-03-27T01:35:17.282Z,92.80
2019-03-27T01:36:17.270Z,93.51
2019-03-27T01:37:17.260Z,93.60
2019-03-27T01:38:17.250Z,92.84
2019-03-27T01:39:17.243Z,93.41
2019-03-27T01:40:17.236Z,93.75
2019-03-27T01:41:17.227Z,93.75
2019-03-27T01:42:17.220Z,93.27
2019-03-27T01:43:17.211Z,93.32
2019-03-27T01:44:17.208Z,93.46
2019-03-27T01:45:17.188Z,93.18
2019-03-27T01:46:17.183Z,93.27
2019-03-27T01:47:17.175Z,93.41
2019-03-27T01:48:17.160Z,93.32
2019-03-27T01:49:17.157Z,93.37
2019-03-27T01:50:17.142Z,93.18
2019-03-27T01:51:17.132Z,93.08
2019-03-27T01:52:17.131Z,93.32
2019-03-27T01:53:17.119Z,93.70
2019-03-27T01:54:17.113Z,93.79
2019-03-27T01:55:17.101Z,93.70
2019-03-27T01:56:17.087Z,93.41
2019-03-27T01:57:17.080Z,93.04
2019-03-27T01:58:17.075Z,92.84
2019-03-27T01:59:17.064Z,93.60
2019-03-27T02:00:17.063Z,93.98
2019-03-27T02:01:17.049Z,93.41
2019-03-27T02:02:17.038Z,93.04
2019-03-27T02:03:17.028Z,93.70
2019-03-27T02:04:17.022Z,93.51
2019-03-27T02:05:17.014Z,93.79
2019-03-27T02:06:17.004Z,93.79
2019-03-27T02:07:16.992Z,93.23
2019-03-27T02:08:16.985Z,93.89
2019-03-27T02:09:16.971Z,93.23
2019-03-27T02:10:16.962Z,93.41
2019-03-27T02:11:16.952Z,93.41
2019-03-27T02:12:16.952Z,93.32
2019-03-27T02:13:16.940Z,93.23
2019-03-27T02:14:16.934Z,93.89
2019-03-27T02:15:16.928Z,93.04
2019-03-27T02:16:16.914Z,93.79
2019-03-27T02:17:16.904Z,93.79
2019-03-27T02:18:16.899Z,93.04
2019-03-27T02:19:16.887Z,93.41
2019-03-27T02:20:16.875Z,93.13
2019-03-27T02:21:16.866Z,93.32
2019-03-27T02:22:16.856Z,93.04
2019-03-27T02:23:16.845Z,93.79
2019-03-27T02:24:16.843Z,93.32
2019-03-27T02:25:16.832Z,93.60
2019-03-27T02:26:16.833Z,93.51
2019-03-27T02:27:16.816Z,93.89
2019-03-27T02:28:16.804Z,93.79
2019-03-27T02:29:16.794Z,94.37
2019-03-27T02:30:16.785Z,93.60
2019-03-27T02:31:16.778Z,93.79
2019-03-27T02:32:20.486Z,93.79
2019-03-27T02:33:16.762Z,93.60
2019-03-27T02:34:16.752Z,93.41
2019-03-27T02:35:16.741Z,94.08
2019-03-27T02:36:16.741Z,94.18
2019-03-27T02:37:16.731Z,93.89
2019-03-27T02:38:16.721Z,94.32
2019-03-27T02:39:16.714Z,93.98
2019-03-27T02:40:16.702Z,94.03
2019-03-27T02:41:16.718Z,94.22
2019-03-27T02:42:16.681Z,94.32
2019-03-27T02:43:16.672Z,94.03
2019-03-27T02:44:16.668Z,94.79
2019-03-27T02:45:16.656Z,94.13
2019-03-27T02:46:24.341Z,94.42
2019-03-27T02:47:16.637Z,94.51
2019-03-27T02:48:16.624Z,94.22
2019-03-27T02:49:16.614Z,94.60
2019-03-27T02:50:16.610Z,94.60
2019-03-27T02:51:16.604Z,94.51
2019-03-27T02:52:16.586Z,94.98
2019-03-27T02:53:16.578Z,94.79
2019-03-27T02:54:16.573Z,94.98
2019-03-27T02:55:16.563Z,94.51
2019-03-27T02:56:16.556Z,94.32
2019-03-27T02:57:16.547Z,94.89
2019-03-27T02:58:16.536Z,95.17
2019-03-27T02:59:16.528Z,95.17
2019-03-27T03:00:16.514Z,94.74
2019-03-27T03:01:16.506Z,95.22
2019-03-27T03:02:16.494Z,94.65
2019-03-27T03:03:16.494Z,94.84
2019-03-27T03:04:16.480Z,95.22
2019-03-27T03:05:16.468Z,94.46
2019-03-27T03:06:16.455Z,95.12
2019-03-27T03:07:16.444Z,94.74
2019-03-27T03:08:16.440Z,94.84
2019-03-27T03:09:16.430Z,95.12
2019-03-27T03:10:16.423Z,94.93
2019-03-27T03:11:16.413Z,94.74
2019-03-27T03:12:16.400Z,95.32
2019-03-27T03:13:16.390Z,95.60
2019-03-27T03:14:16.383Z,96.17
2019-03-27T03:15:16.369Z,96.17
2019-03-27T03:16:16.366Z,95.51
2019-03-27T03:17:16.354Z,95.75
2019-03-27T03:18:16.357Z,95.55
2019-03-27T03:19:16.334Z,95.84
2019-03-27T03:20:16.341Z,95.75
2019-03-27T03:21:16.312Z,95.46
2019-03-27T03:22:16.304Z,95.65
2019-03-27T03:23:16.293Z,95.46
2019-03-27T03:24:16.280Z,95.94
2019-03-27T03:25:16.269Z,95.75
2019-03-27T03:26:16.262Z,95.36
2019-03-27T03:27:16.252Z,95.94
2019-03-27T03:28:16.269Z,95.84
2019-03-27T03:29:16.238Z,95.75
2019-03-27T03:30:16.230Z,95.46
2019-03-27T03:31:16.269Z,96.60
2019-03-27T03:32:16.199Z,96.12
2019-03-27T03:33:16.193Z,96.22
2019-03-27T03:34:16.184Z,96.79
2019-03-27T03:35:16.172Z,96.79
2019-03-27T03:36:16.168Z,97.07
2019-03-27T03:37:16.155Z,97.17
2019-03-27T03:38:16.141Z,97.36
2019-03-27T03:39:16.133Z,98.02
2019-03-27T03:40:16.125Z,98.21
2019-03-27T03:41:16.116Z,98.02
2019-03-27T03:42:16.104Z,97.92
2019-03-27T03:43:16.091Z,98.02
2019-03-27T03:44:16.078Z,97.83
2019-03-27T03:45:16.068Z,97.27
2019-03-27T03:46:16.059Z,97.07
2019-03-27T03:47:16.046Z,96.50
2019-03-27T03:48:16.048Z,97.07
2019-03-27T03:49:16.031Z,96.83
2019-03-27T03:50:16.023Z,96.26
2019-03-27T03:51:16.013Z,96.45
2019-03-27T03:52:15.999Z,96.64
2019-03-27T03:53:15.989Z,96.55
2019-03-27T03:54:15.984Z,96.83
2019-03-27T03:55:15.985Z,96.55
2019-03-27T03:56:15.958Z,96.83
2019-03-27T03:57:15.963Z,96.36
2019-03-27T03:58:15.938Z,96.74
2019-03-27T03:59:15.925Z,96.55
2019-03-27T04:00:15.919Z,96.93
2019-03-27T04:01:15.906Z,96.55
2019-03-27T04:02:15.898Z,96.36
2019-03-27T04:03:15.897Z,97.02
2019-03-27T04:04:22.139Z,97.02
2019-03-27T04:05:15.864Z,96.93
2019-03-27T04:06:15.855Z,97.02
2019-03-27T04:07:15.843Z,97.22
2019-03-27T04:08:15.843Z,97.22
2019-03-27T04:09:15.828Z,97.22
2019-03-27T04:10:15.819Z,97.41
2019-03-27T04:11:15.802Z,97.22
2019-03-27T04:12:15.797Z,97.78
2019-03-27T04:13:15.789Z,97.88
2019-03-27T04:14:15.851Z,97.97
2019-03-27T04:15:15.767Z,98.07
2019-03-27T04:16:15.748Z,98.07
2019-03-27T04:17:17.815Z,97.78
2019-03-27T04:18:15.735Z,97.60
2019-03-27T04:19:15.723Z,97.78
2019-03-27T04:20:15.711Z,98.26
2019-03-27T04:21:15.711Z,97.88
2019-03-27T04:22:15.692Z,97.12
2019-03-27T04:23:15.682Z,97.22
2019-03-27T04:24:15.668Z,97.02
2019-03-27T04:25:15.657Z,97.12
2019-03-27T04:26:15.652Z,97.12
2019-03-27T04:27:15.641Z,97.50
2019-03-27T04:28:15.626Z,97.50
2019-03-27T04:29:15.617Z,97.22
2019-03-27T04:30:15.602Z,96.64
2019-03-27T04:31:15.593Z,96.74
2019-03-27T04:32:15.586Z,97.12
2019-03-27T04:33:15.574Z,97.12
2019-03-27T04:34:15.569Z,97.02
2019-03-27T04:35:15.572Z,96.93
2019-03-27T04:36:15.555Z,97.22
2019-03-27T04:37:15.535Z,97.22
2019-03-27T04:38:15.527Z,97.12
2019-03-27T04:39:15.508Z,96.79
2019-03-27T04:40:15.505Z,96.93
2019-03-27T04:41:15.493Z,97.45
2019-03-27T04:42:15.480Z,97.45
2019-03-27T04:43:15.467Z,97.27
2019-03-27T04:44:15.463Z,97.45
2019-03-27T04:45:15.454Z,97.27
2019-03-27T04:46:15.449Z,97.45
2019-03-27T04:47:15.435Z,97.45
2019-03-27T04:48:15.422Z,97.36
2019-03-27T04:49:15.409Z,97.45
2019-03-27T04:50:15.402Z,97.55
2019-03-27T04:51:15.388Z,97.45
2019-03-27T04:52:15.384Z,97.36
2019-03-27T04:53:15.373Z,97.64
2019-03-27T04:54:15.362Z,97.27
2019-03-27T04:55:15.356Z,97.27
2019-03-27T04:56:15.337Z,97.27
2019-03-27T04:57:15.327Z,96.98
2019-03-27T04:58:15.323Z,97.17
2019-03-27T04:59:15.311Z,97.07
2019-03-27T05:00:15.296Z,97.07
2019-03-27T05:01:15.288Z,97.07
2019-03-27T05:02:15.280Z,97.17
2019-03-27T05:03:15.270Z,96.98
2019-03-27T05:04:15.264Z,96.98
2019-03-27T05:05:15.254Z,97.07
2019-03-27T05:06:15.245Z,97.07
2019-03-27T05:07:15.234Z,96.50
2019-03-27T05:08:15.221Z,96.88
2019-03-27T05:09:15.211Z,96.31
2019-03-27T05:10:15.197Z,96.03
2019-03-27T05:11:15.187Z,96.88
2019-03-27T05:12:15.182Z,96.79
2019-03-27T05:13:15.172Z,96.88
2019-03-27T05:14:15.158Z,96.69
2019-03-27T05:15:15.147Z,96.50
2019-03-27T05:16:15.142Z,96.41
2019-03-27T05:17:15.137Z,96.50
2019-03-27T05:18:15.124Z,96.31
2019-03-27T05:19:15.113Z,96.31
2019-03-27T05:20:15.101Z,96.41
2019-03-27T05:21:15.091Z,96.22
2019-03-27T05:22:15.080Z,96.69
2019-03-27T05:23:15.070Z,96.88
2019-03-27T05:24:15.062Z,96.50
2019-03-27T05:25:15.053Z,96.50
2019-03-27T05:26:15.042Z,96.69
2019-03-27T05:27:15.030Z,96.88
2019-03-27T05:28:15.016Z,96.88
2019-03-27T05:29:15.005Z,96.88
2019-03-27T05:30:15.000Z,97.17
2019-03-27T05:31:14.990Z,97.17
2019-03-27T05:32:14.975Z,97.12
2019-03-27T05:33:14.966Z,96.93
2019-03-27T05:34:14.960Z,97.12
2019-03-27T05:35:14.947Z,97.55
2019-03-27T05:36:14.942Z,97.92
2019-03-27T05:37:14.931Z,98.21
2019-03-27T05:38:14.915Z,98.21
2019-03-27T05:39:14.929Z,97.83
2019-03-27T05:40:14.898Z,98.21
2019-03-27T05:41:14.889Z,98.21
2019-03-27T05:42:14.882Z,98.12
2019-03-27T05:43:14.869Z,97.83
2019-03-27T05:44:14.857Z,98.02
2019-03-27T05:45:14.846Z,97.64
2019-03-27T05:46:14.839Z,98.02
2019-03-27T05:47:14.830Z,98.21
2019-03-27T05:48:14.816Z,98.02
2019-03-27T05:49:14.809Z,98.02
2019-03-27T05:50:14.797Z,97.74
2019-03-27T05:51:14.783Z,97.83
2019-03-27T05:52:14.778Z,97.64
2019-03-27T05:53:14.767Z,97.92
2019-03-27T05:54:14.758Z,98.40
2019-03-27T05:55:14.746Z,98.31
2019-03-27T05:56:14.733Z,98.07
2019-03-27T05:57:14.722Z,97.60
2019-03-27T05:58:14.716Z,97.27
2019-03-27T05:59:14.706Z,97.31
2019-03-27T06:00:14.700Z,97.60
2019-03-27T06:01:14.690Z,97.50
2019-03-27T06:02:14.677Z,97.60
2019-03-27T06:03:14.665Z,97.31
2019-03-27T06:04:14.664Z,97.31
2019-03-27T06:05:14.651Z,97.60
2019-03-27T06:06:14.639Z,97.22
2019-03-27T06:07:14.629Z,97.03
2019-03-27T06:08:14.614Z,96.74
2019-03-27T06:09:14.606Z,97.03
2019-03-27T06:10:16.339Z,96.74
2019-03-27T06:11:14.583Z,96.74
2019-03-27T06:12:14.580Z,96.84
2019-03-27T06:13:14.570Z,96.74
2019-03-27T06:14:14.561Z,97.60
2019-03-27T06:15:14.553Z,97.41
2019-03-27T06:16:14.539Z,97.12
2019-03-27T06:17:14.530Z,97.03
2019-03-27T06:18:14.526Z,97.12
2019-03-27T06:19:14.513Z,97.03
2019-03-27T06:20:14.499Z,97.22
2019-03-27T06:21:14.492Z,97.22
2019-03-27T06:22:15.145Z,97.22
2019-03-27T06:23:14.467Z,97.22
2019-03-27T06:24:14.464Z,97.12
2019-03-27T06:25:14.461Z,97.45
2019-03-27T06:26:14.444Z,97.27
2019-03-27T06:27:14.435Z,96.89
2019-03-27T06:28:14.421Z,97.17
2019-03-27T06:29:15.797Z,97.36
2019-03-27T06:30:14.404Z,96.98
2019-03-27T06:31:14.393Z,96.98
2019-03-27T06:32:14.389Z,97.17
2019-03-27T06:33:14.380Z,97.17
2019-03-27T06:34:14.367Z,96.79
2019-03-27T06:35:14.356Z,97.27
2019-03-27T06:36:14.351Z,97.36
2019-03-27T06:37:14.343Z,96.60
2019-03-27T06:38:14.331Z,96.69
2019-03-27T06:39:14.321Z,96.60
2019-03-27T06:40:14.307Z,96.65
2019-03-27T06:41:14.298Z,96.74
2019-03-27T06:42:14.291Z,96.46
2019-03-27T06:43:14.283Z,96.26
2019-03-27T06:44:14.277Z,96.36
2019-03-27T06:45:14.270Z,96.55
2019-03-27T06:46:14.257Z,96.65
2019-03-27T06:47:14.248Z,96.26
2019-03-27T06:48:25.724Z,96.65
2019-03-27T06:49:14.226Z,95.60
2019-03-27T06:50:14.221Z,95.94
2019-03-27T06:51:14.212Z,96.03
2019-03-27T06:52:14.198Z,95.75
2019-03-27T06:53:14.191Z,95.65
2019-03-27T06:54:14.188Z,95.03
2019-03-27T06:55:14.175Z,94.79
2019-03-27T06:56:14.171Z,93.93
2019-03-27T06:57:14.166Z,93.93
2019-03-27T06:58:14.153Z,93.60
2019-03-27T06:59:14.144Z,93.12
2019-03-27T07:00:14.133Z,92.27
2019-03-27T07:01:14.125Z,91.88
2019-03-27T07:02:14.114Z,91.50
2019-03-27T07:03:14.109Z,91.55
2019-03-27T07:04:14.105Z,91.17
2019-03-27T07:05:14.097Z,90.41
2019-03-27T07:06:14.085Z,90.03
2019-03-27T07:07:14.075Z,89.36
2019-03-27T07:08:14.074Z,88.98
2019-03-27T07:09:14.067Z,88.98
2019-03-27T07:10:14.062Z,89.12
2019-03-27T07:11:14.064Z,88.45
2019-03-27T07:12:21.039Z,88.64
2019-03-27T07:13:14.038Z,87.87
2019-03-27T07:14:14.031Z,87.87
2019-03-27T07:15:14.023Z,87.49
2019-03-27T07:16:14.023Z,86.73
2019-03-27T07:17:14.015Z,86.35
2019-03-27T07:18:14.007Z,86.54
2019-03-27T07:19:14.003Z,86.68
2019-03-27T07:20:13.989Z,86.63
2019-03-27T07:21:13.985Z,86.06
2019-03-27T07:22:13.983Z,86.10
2019-03-27T07:23:13.977Z,85.49
2019-03-27T07:24:13.965Z,85.05
2019-03-27T07:25:13.959Z,85.01
2019-03-27T07:26:13.956Z,85.87
2019-03-27T07:27:13.953Z,85.49
2019-03-27T07:28:13.947Z,85.77
2019-03-27T07:29:13.943Z,85.97
2019-03-27T07:30:13.937Z,85.97
2019-03-27T07:31:13.930Z,85.68
2019-03-27T07:32:13.919Z,86.63
2019-03-27T07:33:13.921Z,86.82
2019-03-27T07:34:13.906Z,87.21
2019-03-27T07:35:13.899Z,86.44
2019-03-27T07:36:13.900Z,86.54
2019-03-27T07:37:13.893Z,86.06
2019-03-27T07:38:13.882Z,85.97
2019-03-27T07:39:13.878Z,85.68
2019-03-27T07:40:13.878Z,86.35
2019-03-27T07:41:13.870Z,85.58
2019-03-27T07:42:13.867Z,85.49
2019-03-27T07:43:13.860Z,84.96
2019-03-27T07:44:13.850Z,84.39
2019-03-27T07:45:13.843Z,84.63
2019-03-27T07:46:13.837Z,85.11
2019-03-27T07:47:13.829Z,85.25
2019-03-27T07:48:13.829Z,84.86
2019-03-27T07:49:13.826Z,85.72
2019-03-27T07:50:13.818Z,84.86
2019-03-27T07:51:13.815Z,85.25
2019-03-27T07:52:13.804Z,85.05
2019-03-27T07:53:13.800Z,84.48
2019-03-27T07:54:13.797Z,84.39
2019-03-27T07:55:19.160Z,84.29
2019-03-27T07:56:13.785Z,83.62
2019-03-27T07:57:13.776Z,84.05
2019-03-27T07:58:13.766Z,83.86
2019-03-27T07:59:13.761Z,83.51
2019-03-27T08:00:13.761Z,82.70
2019-03-27T08:01:13.755Z,82.70
2019-03-27T08:02:13.750Z,82.31
2019-03-27T08:03:13.746Z,80.59
2019-03-27T08:04:14.619Z,79.93
2019-03-27T08:05:13.733Z,79.31
2019-03-27T08:06:13.730Z,79.50
2019-03-27T08:07:26.346Z,79.35
2019-03-27T08:08:13.724Z,78.43
2019-03-27T08:09:13.721Z,77.70
2019-03-27T08:10:13.713Z,76.31
2019-03-27T08:11:13.768Z,74.89
2019-03-27T08:12:13.806Z,72.56
2019-03-27T08:13:13.706Z,69.36
2019-03-27T08:14:13.700Z,68.40
2019-03-27T08:15:13.696Z,67.70
2019-03-27T08:16:13.690Z,66.97
2019-03-27T08:17:13.688Z,65.05
2019-03-27T08:18:13.687Z,63.70
2019-03-27T08:19:13.686Z,63.48
2019-03-27T08:20:13.690Z,64.22
2019-03-27T08:21:13.690Z,64.59
2019-03-27T08:22:13.696Z,64.76
2019-03-27T08:23:13.691Z,64.69
2019-03-27T08:24:13.688Z,64.79
2019-03-27T08:25:13.688Z,64.18
2019-03-27T08:26:13.695Z,63.09
2019-03-27T08:27:14.610Z,61.58
2019-03-27T08:28:13.688Z,60.30
2019-03-27T08:29:13.693Z,59.45
2019-03-27T08:30:13.692Z,58.01
2019-03-27T08:31:13.688Z,56.66
2019-03-27T08:32:13.696Z,56.27
2019-03-27T08:33:13.696Z,55.24
2019-03-27T08:34:13.700Z,55.02
2019-03-27T08:35:13.712Z,55.51
2019-03-27T08:36:13.697Z,55.60
2019-03-27T08:37:13.699Z,55.05
2019-03-27T08:38:15.056Z,54.57
2019-03-27T08:39:13.705Z,53.96
2019-03-27T08:40:13.712Z,54.52
2019-03-27T08:41:13.716Z,55.65
2019-03-27T08:42:13.712Z,55.33
2019-03-27T08:43:21.300Z,57.00
2019-03-27T08:44:13.722Z,58.13
2019-03-27T08:45:13.730Z,59.57
2019-03-27T08:46:13.735Z,59.64
2019-03-27T08:47:13.723Z,59.89
2019-03-27T08:48:13.719Z,60.82
2019-03-27T08:49:21.942Z,60.72
2019-03-27T08:50:13.727Z,61.85
2019-03-27T08:51:13.724Z,61.66
2019-03-27T08:52:13.728Z,62.96
2019-03-27T08:53:13.728Z,63.92
2019-03-27T08:54:13.725Z,65.33
2019-03-27T08:55:13.998Z,67.11
2019-03-27T08:56:13.719Z,68.74
2019-03-27T08:57:13.720Z,69.32
2019-03-27T08:58:13.722Z,70.56
2019-03-27T08:59:13.719Z,71.14
2019-03-27T09:00:13.714Z,71.14
2019-03-27T09:01:13.713Z,71.58
2019-03-27T09:02:13.714Z,72.92
2019-03-27T09:03:13.711Z,72.92
2019-03-27T09:04:13.713Z,72.83
2019-03-27T09:05:13.712Z,72.54
2019-03-27T09:06:13.710Z,72.00
2019-03-27T09:07:13.708Z,70.23
2019-03-27T09:08:13.707Z,68.69
2019-03-27T09:09:13.696Z,67.19
2019-03-27T09:10:13.693Z,65.20
2019-03-27T09:11:13.689Z,61.42
2019-03-27T09:12:13.693Z,58.69
2019-03-27T09:13:13.688Z,55.92
2019-03-27T09:14:13.685Z,53.48
2019-03-27T09:15:13.686Z,52.56
2019-03-27T09:16:13.687Z,52.92
2019-03-27T09:17:13.687Z,52.84
2019-03-27T09:18:16.815Z,53.66
2019-03-27T09:19:13.690Z,54.52
2019-03-27T09:20:13.688Z,55.16
2019-03-27T09:21:13.689Z,56.67
2019-03-27T09:22:13.688Z,58.11
2019-03-27T09:23:13.688Z,59.23
2019-03-27T09:24:13.693Z,59.42
2019-03-27T09:25:13.694Z,60.89
2019-03-27T09:26:13.691Z,59.77
2019-03-27T09:27:13.690Z,59.67
2019-03-27T09:28:13.686Z,59.83
2019-03-27T09:29:13.686Z,60.22
2019-03-27T09:30:13.691Z,60.50
2019-03-27T09:31:13.690Z,61.46
2019-03-27T09:32:13.684Z,62.04
2019-03-27T09:33:13.685Z,63.29
2019-03-27T09:34:13.688Z,63.67
2019-03-27T09:35:13.686Z,62.52
2019-03-27T09:36:13.692Z,61.85
2019-03-27T09:37:13.689Z,62.10
2019-03-27T09:38:13.688Z,61.72
2019-03-27T09:39:13.686Z,63.09
2019-03-27T09:40:13.684Z,62.71
2019-03-27T09:41:13.681Z,61.63
2019-03-27T09:42:13.677Z,60.76
2019-03-27T09:43:13.676Z,60.31
2019-03-27T09:44:13.679Z,60.25
2019-03-27T09:45:13.679Z,59.48
2019-03-27T09:46:13.675Z,57.45
2019-03-27T09:47:13.671Z,55.27
2019-03-27T09:48:13.676Z,54.02
2019-03-27T09:49:13.676Z,52.58
2019-03-27T09:50:13.677Z,52.00
2019-03-27T09:51:13.681Z,51.53
2019-03-27T09:52:13.677Z,52.68
2019-03-27T09:53:13.674Z,53.16
2019-03-27T09:54:13.674Z,53.45
2019-03-27T09:55:13.682Z,54.12
2019-03-27T09:56:19.233Z,54.14
2019-03-27T09:57:13.681Z,52.97
2019-03-27T09:58:13.675Z,52.87
2019-03-27T09:59:13.676Z,52.75
2019-03-27T10:00:13.671Z,53.80
2019-03-27T10:01:13.672Z,53.70
2019-03-27T10:02:13.677Z,53.42
2019-03-27T10:03:13.676Z,54.16
2019-03-27T10:04:13.674Z,54.93
2019-03-27T10:05:13.672Z,55.02
2019-03-27T10:06:13.675Z,55.41
2019-03-27T10:07:13.677Z,55.22
2019-03-27T10:08:13.679Z,56.40
2019-03-27T10:09:13.683Z,55.24
2019-03-27T10:10:13.680Z,54.31
2019-03-27T10:11:13.680Z,53.42
2019-03-27T10:12:13.675Z,53.68
2019-03-27T10:13:13.676Z,53.78
2019-03-27T10:14:13.675Z,54.06
2019-03-27T10:15:13.673Z,54.00
2019-03-27T10:16:13.680Z,52.58
2019-03-27T10:17:13.679Z,51.84
2019-03-27T10:18:13.676Z,51.57
2019-03-27T10:19:13.683Z,50.83
2019-03-27T10:20:13.896Z,49.96
2019-03-27T10:21:13.686Z,49.17
2019-03-27T10:22:13.686Z,48.59
2019-03-27T10:23:13.690Z,48.18
2019-03-27T10:24:13.686Z,48.95
2019-03-27T10:25:13.687Z,49.33
2019-03-27T10:26:13.687Z,49.79
2019-03-27T10:27:13.689Z,50.37
2019-03-27T10:28:13.694Z,50.34
2019-03-27T10:29:13.699Z,50.82
2019-03-27T10:30:13.698Z,52.26
2019-03-27T10:31:13.695Z,52.26
2019-03-27T10:32:13.751Z,52.65
2019-03-27T10:33:15.192Z,51.79
2019-03-27T10:34:13.700Z,51.98
2019-03-27T10:35:13.700Z,52.08
2019-03-27T10:36:13.695Z,52.08
2019-03-27T10:37:13.697Z,51.40
2019-03-27T10:38:13.701Z,51.76
2019-03-27T10:39:13.701Z,52.31
2019-03-27T10:40:13.708Z,52.79
2019-03-27T10:41:13.707Z,54.42
2019-03-27T10:42:13.708Z,55.00
2019-03-27T10:43:13.719Z,55.29
2019-03-27T10:44:13.702Z,55.35
2019-03-27T10:45:13.702Z,55.26
2019-03-27T10:46:13.700Z,55.35
2019-03-27T10:47:13.699Z,56.02
2019-03-27T10:48:13.702Z,55.74
2019-03-27T10:49:13.703Z,55.64
2019-03-27T10:50:17.826Z,56.70
2019-03-27T10:51:13.696Z,56.09
2019-03-27T10:52:13.707Z,56.31
2019-03-27T10:53:13.699Z,56.41
2019-03-27T10:54:13.701Z,56.57
2019-03-27T10:55:13.698Z,56.51
2019-03-27T10:56:13.695Z,56.00
2019-03-27T10:57:13.699Z,56.76
2019-03-27T10:58:13.691Z,56.67
2019-03-27T10:59:13.688Z,56.67
2019-03-27T11:00:13.694Z,56.96
2019-03-27T11:01:13.696Z,57.53
2019-03-27T11:02:13.701Z,57.53
2019-03-27T11:03:13.691Z,57.34
2019-03-27T11:04:13.696Z,57.72
2019-03-27T11:05:13.685Z,57.24
2019-03-27T11:06:13.690Z,57.24
2019-03-27T11:07:13.686Z,57.53
2019-03-27T11:08:13.681Z,57.15
2019-03-27T11:09:13.683Z,56.86
2019-03-27T11:10:13.674Z,57.15
2019-03-27T11:11:13.674Z,57.06
2019-03-27T11:12:13.676Z,57.24
2019-03-27T11:13:13.675Z,57.65
2019-03-27T11:14:13.672Z,57.18
2019-03-27T11:15:13.672Z,56.31
2019-03-27T11:16:13.664Z,56.89
2019-03-27T11:17:13.664Z,56.79
2019-03-27T11:18:13.664Z,56.57
2019-03-27T11:19:13.662Z,57.15
2019-03-27T11:20:13.664Z,56.67
2019-03-27T11:21:13.663Z,57.43
2019-03-27T11:22:13.657Z,56.76
2019-03-27T11:23:13.657Z,56.57
2019-03-27T11:24:13.657Z,56.48
2019-03-27T11:25:13.661Z,57.53
2019-03-27T11:26:13.653Z,57.37
2019-03-27T11:27:13.654Z,57.56
2019-03-27T11:28:13.646Z,56.22
2019-03-27T11:29:13.643Z,55.86
2019-03-27T11:30:13.641Z,56.05
2019-03-27T11:31:13.641Z,56.05
2019-03-27T11:32:13.641Z,55.19
2019-03-27T11:33:13.643Z,55.77
2019-03-27T11:34:13.642Z,54.55
2019-03-27T11:35:13.641Z,54.16
2019-03-27T11:36:13.636Z,54.06
2019-03-27T11:37:13.635Z,54.25
2019-03-27T11:38:13.637Z,54.19
2019-03-27T11:39:13.636Z,53.90
2019-03-27T11:40:13.631Z,53.70
2019-03-27T11:41:13.630Z,54.12
2019-03-27T11:42:13.629Z,53.83
2019-03-27T11:43:13.625Z,54.02
2019-03-27T11:44:13.630Z,52.87
2019-03-27T11:45:13.629Z,51.91
2019-03-27T11:46:13.631Z,51.04
2019-03-27T11:47:13.636Z,51.14
2019-03-27T11:48:13.625Z,50.54
2019-03-27T11:49:13.623Z,50.95
2019-03-27T11:50:13.626Z,51.11
2019-03-27T11:51:13.644Z,51.69
2019-03-27T11:52:13.629Z,51.02
2019-03-27T11:53:13.630Z,51.59
2019-03-27T11:54:13.626Z,52.17
2019-03-27T11:55:13.624Z,51.31
2019-03-27T11:56:13.628Z,51.69
2019-03-27T11:57:13.631Z,51.67
2019-03-27T11:58:15.044Z,51.76
2019-03-27T11:59:13.624Z,52.40
2019-03-27T12:00:13.620Z,52.22
2019-03-27T12:01:13.620Z,52.12
2019-03-27T12:02:13.622Z,52.02
2019-03-27T12:03:13.623Z,52.69
2019-03-27T12:04:13.624Z,53.15
2019-03-27T12:05:13.624Z,54.01
2019-03-27T12:06:13.623Z,54.01
2019-03-27T12:07:13.620Z,54.27
2019-03-27T12:08:13.616Z,54.37
2019-03-27T12:09:13.614Z,54.68
2019-03-27T12:10:13.617Z,55.55
2019-03-27T12:11:13.616Z,55.83
2019-03-27T12:12:13.611Z,55.97
2019-03-27T12:13:13.609Z,55.90
2019-03-27T12:14:13.612Z,56.76
2019-03-27T12:15:13.610Z,56.67
2019-03-27T12:16:13.613Z,56.38
2019-03-27T12:17:13.612Z,56.51
2019-03-27T12:18:13.612Z,56.12
2019-03-27T12:19:13.612Z,55.13
2019-03-27T12:20:13.605Z,55.04
2019-03-27T12:21:13.603Z,56.16
2019-03-27T12:22:13.605Z,56.09
2019-03-27T12:23:13.598Z,56.45
2019-03-27T12:24:13.600Z,56.29
2019-03-27T12:25:13.602Z,56.48
2019-03-27T12:26:13.594Z,55.71
2019-03-27T12:27:13.590Z,56.02
2019-03-27T12:28:13.595Z,55.16
2019-03-27T12:29:13.600Z,55.26
2019-03-27T12:30:13.595Z,56.51
2019-03-27T12:31:13.592Z,56.60
2019-03-27T12:32:13.587Z,56.02
2019-03-27T12:33:13.587Z,55.00
2019-03-27T12:34:13.585Z,55.10
2019-03-27T12:35:13.583Z,54.39
2019-03-27T12:36:13.586Z,54.97
2019-03-27T12:37:13.584Z,54.85
2019-03-27T12:38:13.580Z,55.42
2019-03-27T12:39:13.580Z,55.04
2019-03-27T12:40:13.575Z,55.13
2019-03-27T12:41:13.572Z,55.26
2019-03-27T12:42:13.596Z,55.13
2019-03-27T12:43:13.584Z,55.26
2019-03-27T12:44:13.569Z,54.97
2019-03-27T12:45:13.565Z,55.07
2019-03-27T12:46:13.568Z,55.16
2019-03-27T12:47:13.567Z,56.02
2019-03-27T12:48:13.568Z,56.89
2019-03-27T12:49:13.567Z,56.51
2019-03-27T12:50:13.565Z,56.70
2019-03-27T12:51:13.583Z,56.51
2019-03-27T12:52:13.557Z,56.51